Terminal Aerodrome Forecast
Issued by NWS North Platte, NE

Home | Current Version | Previous Version | Text Only | Print | Product List | Glossary Off
Versions: 1 2 3 4 5 6 7 8 9 10 11 12 13

000
FTUS43 KLBF 240520
TAFVTN
TAF
KVTN 240520Z 2406/2506 28005KT P6SM FEW250
     FM241600 31013G19KT P6SM FEW250
     FM250000 35008KT P6SM FEW200
     FM250300 01004KT P6SM FEW200=

USA.gov is the U.S. government's official web portal to all federal, state and local government web resources and services.